Weather reports worldwide

Advertisment
Southampton oceanography centre, United Kingdom (99079): temperature & dewpoint: 03.04.2020 12:00:00 - 09.04.2020 12:00:00 (BST)Southampton oceanography centre, United Kingdom (99079): wind speed & gusts: 03.04.2020 12:00:00 - 09.04.2020 12:00:00 (BST)Southampton oceanography centre, United Kingdom (99079): wind direction: 03.04.2020 12:00:00 - 09.04.2020 12:00:00 (BST)Southampton oceanography centre, United Kingdom (99079): precipitation: 03.04.2020 12:00:00 - 09.04.2020 12:00:00 (BST)
Date & Time tt [°C] td [°C] ff [km/h] ff [kn] fx [km/h] fx [kn] dd rr [mm]
09.04.2020 12:00:00 16,6 9,1 16 9 - - SE -
09.04.2020 11:00:00 19,3 9,6 4 2 - - SSW 0,0
09.04.2020 10:00:00 17,2 10,4 4 2 - - NE 0,0
09.04.2020 09:00:00 12,7 8,6 5 3 - - NNW 0,0
09.04.2020 08:00:00 11,0 8,2 5 3 - - N 0,0
09.04.2020 07:00:00 8,9 7,0 5 3 - - NW 0,0
09.04.2020 06:00:00 9,4 7,4 9 5 - - N 0,0
09.04.2020 05:00:00 9,9 7,7 8 4 - - N 0,0
09.04.2020 04:00:00 10,3 7,8 5 3 - - N 0,0
09.04.2020 03:00:00 10,2 8,2 2 1 - - E 0,0
09.04.2020 02:00:00 11,0 8,7 4 2 - - NNW 0,0
09.04.2020 01:00:00 11,7 8,5 2 1 - - E 0,0
09.04.2020 00:00:00 12,8 8,9 2 1 - - NE 0,0
08.04.2020 23:00:00 12,5 8,4 0 0 - - N 0,0
08.04.2020 22:00:00 13,2 9,3 5 3 - - SE 0,0
08.04.2020 21:00:00 13,8 9,3 8 4 - - SE 0,0
08.04.2020 20:00:00 15,0 9,5 9 5 - - SE 0,0
08.04.2020 19:00:00 15,9 9,5 11 6 - - SSE 0,0
08.04.2020 18:00:00 16,1 9,4 13 7 - - SE 0,0
08.04.2020 17:00:00 16,8 9,5 16 9 - - SE 0,0
08.04.2020 16:00:00 17,1 9,7 16 9 - - SE 0,0
08.04.2020 15:00:00 16,4 9,4 18 10 - - SE 0,0
08.04.2020 14:00:00 15,5 9,3 13 7 - - SE 0,0
08.04.2020 13:00:00 18,1 8,6 8 4 - - ESE 0,0
08.04.2020 12:00:00 18,7 8,9 5 3 - - ENE 0,0
08.04.2020 11:00:00 16,7 8,1 5 3 - - NNE 0,0
08.04.2020 10:00:00 14,2 7,2 8 4 - - NE 0,0
08.04.2020 09:00:00 12,7 6,4 9 5 - - N 0,0
08.04.2020 08:00:00 11,5 6,3 8 4 - - N 0,0
08.04.2020 07:00:00 11,4 6,0 9 5 - - N 0,0
08.04.2020 06:00:00 11,5 5,1 8 4 - - N 0,0
08.04.2020 05:00:00 11,7 4,6 9 5 - - N 0,0
08.04.2020 04:00:00 11,7 4,1 9 5 - - N 0,0
08.04.2020 03:00:00 11,4 4,6 8 4 - - N 0,0
08.04.2020 02:00:00 11,9 4,9 8 4 - - NNE 0,0
08.04.2020 01:00:00 12,3 4,8 9 5 - - NE 0,0
08.04.2020 00:00:00 11,9 4,8 5 3 - - NNE 0,0
07.04.2020 23:00:00 12,4 6,0 5 3 - - N 0,0
07.04.2020 22:00:00 12,5 6,4 0 0 - - N 0,0
07.04.2020 21:00:00 12,1 7,0 4 2 - - SE 0,0
07.04.2020 20:00:00 13,1 4,9 5 3 - - SE 0,0
07.04.2020 19:00:00 13,7 6,4 4 2 - - SE 0,0
07.04.2020 18:00:00 14,0 5,1 9 5 - - SSE 0,0
07.04.2020 17:00:00 14,2 5,0 8 4 - - SSE 0,0
07.04.2020 16:00:00 13,7 5,9 13 7 - - SE 0,0
07.04.2020 15:00:00 14,4 4,8 18 10 - - SSE 0,0
07.04.2020 14:00:00 13,9 7,0 24 13 - - SSE 0,0
07.04.2020 13:00:00 14,3 5,5 15 8 - - SSE 0,0
07.04.2020 12:00:00 12,8 6,9 13 7 - - SSE 0,0
07.04.2020 11:00:00 12,7 6,2 9 5 - - SSE 0,0
07.04.2020 10:00:00 12,4 6,3 4 2 - - SSE 0,0
07.04.2020 09:00:00 10,0 4,6 2 1 - - ESE 0,0
07.04.2020 08:00:00 7,6 4,4 2 1 - - NNW 0,0
07.04.2020 07:00:00 6,0 3,0 5 3 - - N 0,0
07.04.2020 06:00:00 6,5 3,2 2 1 - - ENE 0,0
07.04.2020 05:00:00 6,9 3,5 2 1 - - N 0,0
07.04.2020 04:00:00 7,1 3,6 5 3 - - N 0,0
07.04.2020 03:00:00 7,7 4,6 2 1 - - N 0,0
07.04.2020 02:00:00 7,9 5,3 2 1 - - NW 0,0
07.04.2020 01:00:00 9,3 4,5 2 1 - - NNE 0,0
07.04.2020 00:00:00 9,4 6,8 4 2 - - NNW 0,0
06.04.2020 23:00:00 9,4 6,9 2 1 - - SSE 0,0
06.04.2020 22:00:00 10,4 6,9 5 3 - - WSW 0,0
06.04.2020 21:00:00 10,7 7,0 4 2 - - WSW 0,0
06.04.2020 20:00:00 12,2 6,5 13 7 - - SSW 0,0
06.04.2020 19:00:00 13,9 6,3 22 12 - - SW 0,0
06.04.2020 18:00:00 15,0 6,8 26 14 - - SW 0,0
06.04.2020 17:00:00 14,8 7,2 26 14 - - SSW 0,0
06.04.2020 16:00:00 15,1 6,7 24 13 48 26 SSW 0,0
06.04.2020 15:00:00 16,2 4,6 22 12 - - SW 0,0
06.04.2020 14:00:00 17,3 6,4 24 13 - - SW 0,0
06.04.2020 13:00:00 16,6 3,8 9 5 - - WSW 0,0
06.04.2020 12:00:00 15,5 5,3 13 7 - - WNW 0,0
06.04.2020 11:00:00 14,6 7,3 9 5 - - WNW 0,0
06.04.2020 10:00:00 13,4 8,0 9 5 - - W 0,0
06.04.2020 09:00:00 12,0 10,3 9 5 - - WSW 0,0
06.04.2020 08:00:00 11,3 10,2 15 8 - - SW 0,0
06.04.2020 07:00:00 11,4 10,2 16 9 - - SSW 0,0
06.04.2020 06:00:00 11,7 10,3 21 11 - - SSW 0,0
06.04.2020 05:00:00 12,4 10,7 15 8 - - SSW 0,0
06.04.2020 04:00:00 13,1 10,0 22 12 - - SSW 0,0
06.04.2020 03:00:00 13,4 8,3 16 9 - - SSW 0,0
06.04.2020 02:00:00 13,6 8,5 15 8 46 25 SSW 0,0
06.04.2020 01:00:00 14,9 8,0 34 18 50 27 SW 0,0
06.04.2020 00:00:00 16,0 7,0 21 11 - - S 0,0
05.04.2020 23:00:00 15,7 7,5 15 8 - - S 0,0
05.04.2020 22:00:00 15,4 8,1 16 9 - - S 0,0
05.04.2020 21:00:00 14,0 7,8 21 11 - - SE 0,0
05.04.2020 20:00:00 15,1 7,0 21 11 - - SE 0,0
05.04.2020 19:00:00 15,2 6,5 26 14 - - SE 0,0
05.04.2020 18:00:00 13,9 7,8 18 10 - - SSE 0,0
05.04.2020 17:00:00 15,9 7,0 24 13 - - SE 0,0
05.04.2020 16:00:00 16,2 7,3 21 11 - - SE 0,0
05.04.2020 15:00:00 15,2 6,5 13 7 - - ESE 0,0
05.04.2020 14:00:00 15,3 6,9 15 8 - - SE 0,0
05.04.2020 13:00:00 14,7 6,5 18 10 - - SE 0,0
05.04.2020 12:00:00 14,0 5,9 21 11 - - SE 0,0
05.04.2020 11:00:00 13,3 6,1 18 10 - - SE 0,0
05.04.2020 10:00:00 12,9 6,0 18 10 - - SE 0,0
05.04.2020 09:00:00 11,4 5,8 18 10 - - SE 0,0
05.04.2020 08:00:00 10,5 5,9 18 10 - - SE 0,0
05.04.2020 07:00:00 10,0 5,5 22 12 - - SE 0,0
05.04.2020 06:00:00 10,1 5,6 22 12 - - SE 0,0
05.04.2020 05:00:00 10,2 6,2 21 11 - - SE 0,0
05.04.2020 04:00:00 10,5 5,7 18 10 - - SE 0,0
05.04.2020 03:00:00 10,5 6,1 15 8 - - SE 0,0
05.04.2020 02:00:00 10,7 6,0 16 9 - - SE 0,0
05.04.2020 01:00:00 10,6 5,9 13 7 - - SE 0,0
05.04.2020 00:00:00 9,6 5,2 5 3 - - ESE 0,0
04.04.2020 23:00:00 10,2 4,8 9 5 - - ESE 0,0
04.04.2020 22:00:00 10,2 4,2 8 4 - - ESE 0,0
04.04.2020 21:00:00 10,6 3,6 9 5 - - ESE 0,0
04.04.2020 20:00:00 11,2 4,1 8 4 - - ESE 0,0
04.04.2020 19:00:00 10,9 5,2 16 9 - - SSE 0,0
04.04.2020 18:00:00 11,4 5,2 15 8 - - SSE 0,0
04.04.2020 17:00:00 12,1 4,2 18 10 - - SE 0,0
04.04.2020 16:00:00 12,3 5,1 21 11 - - SSE 0,0
04.04.2020 15:00:00 12,5 5,9 16 9 - - SE 0,0
04.04.2020 14:00:00 12,5 5,7 21 11 - - SE 0,0
04.04.2020 13:00:00 11,8 6,4 22 12 - - SE 0,0
04.04.2020 12:00:00 11,4 7,4 21 11 - - SE 0,0
04.04.2020 11:00:00 10,8 7,9 16 9 - - SE 0,0
04.04.2020 10:00:00 8,0 7,3 16 9 - - SE 0,0
04.04.2020 09:00:00 8,5 7,2 5 3 - - ESE 0,0
04.04.2020 08:00:00 8,3 6,9 5 3 - - E 0,0
04.04.2020 07:00:00 7,9 7,0 8 4 - - SSE 0,0
04.04.2020 06:00:00 8,0 7,7 9 5 - - SSE 0,0
04.04.2020 05:00:00 7,9 7,7 8 4 - - SSE 0,0
04.04.2020 04:00:00 7,2 7,0 5 3 - - S 0,0
04.04.2020 03:00:00 6,7 6,1 4 2 - - SSW 0,0
04.04.2020 02:00:00 7,0 6,1 5 3 - - SW 0,0
04.04.2020 01:00:00 7,7 6,0 5 3 - - SW 0,0
04.04.2020 00:00:00 8,0 5,9 5 3 - - SSW 0,0
03.04.2020 23:00:00 8,3 5,8 4 2 - - WSW 0,0
03.04.2020 22:00:00 9,0 6,0 5 3 - - WSW 0,0
03.04.2020 21:00:00 9,6 6,3 11 6 - - SSW 0,0
03.04.2020 20:00:00 10,9 6,4 11 6 - - SSW 0,0
03.04.2020 19:00:00 13,1 3,2 15 8 - - WNW 0,0
03.04.2020 18:00:00 13,1 2,8 16 9 - - W 0,0
03.04.2020 17:00:00 14,0 2,9 16 9 - - SW 0,0
03.04.2020 16:00:00 13,8 3,6 11 6 - - W 0,0
03.04.2020 15:00:00 13,3 3,6 13 7 - - WNW 0,0
03.04.2020 14:00:00 14,0 5,0 9 5 - - W 0,0
03.04.2020 13:00:00 12,1 3,7 9 5 - - WNW 0,0
03.04.2020 12:00:00 11,0 3,2 13 7 - - WNW 0,0

tt = temperature
td = dewpoint
ff = wind speed
fx = gusts
dd = wind direction
rr = precipitation

Next stations